sensor_id;sensor_type;location;lat;lon;timestamp;pressure;altitude;pressure_sealevel;temperature;humidity
4858;BME280;58975;51.978;8.472;2023-05-22T00:04:20;100224.88;;;17.16;100.00
4858;BME280;58975;51.978;8.472;2023-05-22T00:09:17;100221.34;;;17.07;100.00
4858;BME280;58975;51.978;8.472;2023-05-22T00:14:14;100214.47;;;16.96;100.00
4858;BME280;58975;51.978;8.472;2023-05-22T00:19:10;100223.03;;;16.84;100.00
4858;BME280;58975;51.978;8.472;2023-05-22T00:24:12;100218.00;;;16.81;100.00
4858;BME280;58975;51.978;8.472;2023-05-22T00:29:08;100211.63;;;16.82;100.00
4858;BME280;58975;51.978;8.472;2023-05-22T00:34:06;100193.63;;;16.74;100.00
4858;BME280;58975;51.978;8.472;2023-05-22T00:39:02;100206.69;;;16.53;100.00
4858;BME280;58975;51.978;8.472;2023-05-22T00:43:59;100201.16;;;16.46;100.00
4858;BME280;58975;51.978;8.472;2023-05-22T00:48:55;100202.78;;;16.31;100.00
4858;BME280;58975;51.978;8.472;2023-05-22T00:53:52;100206.78;;;16.27;100.00
4858;BME280;58975;51.978;8.472;2023-05-22T00:58:49;100226.94;;;16.23;100.00
4858;BME280;58975;51.978;8.472;2023-05-22T01:03:46;100229.28;;;16.18;100.00
4858;BME280;58975;51.978;8.472;2023-05-22T01:08:43;100229.78;;;16.14;100.00
4858;BME280;58975;51.978;8.472;2023-05-22T01:13:57;100241.53;;;16.13;100.00
4858;BME280;58975;51.978;8.472;2023-05-22T01:19:24;100248.59;;;16.14;100.00
4858;BME280;58975;51.978;8.472;2023-05-22T01:35:21;100207.69;;;16.44;100.00
4858;BME280;58975;51.978;8.472;2023-05-22T01:40:19;100189.72;;;16.52;100.00
4858;BME280;58975;51.978;8.472;2023-05-22T01:45:16;100176.13;;;16.54;100.00
4858;BME280;58975;51.978;8.472;2023-05-22T01:50:13;100169.94;;;16.62;100.00
4858;BME280;58975;51.978;8.472;2023-05-22T01:55:17;100170.75;;;16.70;100.00
4858;BME280;58975;51.978;8.472;2023-05-22T02:00:17;100162.38;;;16.65;100.00
4858;BME280;58975;51.978;8.472;2023-05-22T02:05:17;100159.19;;;16.62;100.00
4858;BME280;58975;51.978;8.472;2023-05-22T02:10:17;100165.56;;;16.61;100.00
4858;BME280;58975;51.978;8.472;2023-05-22T02:15:14;100162.53;;;16.72;100.00
4858;BME280;58975;51.978;8.472;2023-05-22T02:20:12;100151.13;;;16.70;100.00
4858;BME280;58975;51.978;8.472;2023-05-22T02:25:12;100146.91;;;16.75;100.00
4858;BME280;58975;51.978;8.472;2023-05-22T02:30:10;100141.53;;;16.75;100.00
4858;BME280;58975;51.978;8.472;2023-05-22T02:35:08;100129.25;;;16.81;100.00
4858;BME280;58975;51.978;8.472;2023-05-22T02:40:05;100126.72;;;16.79;100.00
4858;BME280;58975;51.978;8.472;2023-05-22T02:45:02;100123.03;;;16.80;100.00
4858;BME280;58975;51.978;8.472;2023-05-22T02:49:58;100118.50;;;16.81;100.00
4858;BME280;58975;51.978;8.472;2023-05-22T02:54:55;100118.84;;;16.78;100.00
4858;BME280;58975;51.978;8.472;2023-05-22T02:59:51;100116.66;;;16.73;100.00
4858;BME280;58975;51.978;8.472;2023-05-22T03:04:49;100116.66;;;16.73;100.00
4858;BME280;58975;51.978;8.472;2023-05-22T03:09:46;100112.78;;;16.68;100.00
4858;BME280;58975;51.978;8.472;2023-05-22T03:14:43;100109.75;;;16.63;100.00
4858;BME280;58975;51.978;8.472;2023-05-22T03:19:39;100100.19;;;16.60;100.00
4858;BME280;58975;51.978;8.472;2023-05-22T03:24:36;100097.34;;;16.62;100.00
4858;BME280;58975;51.978;8.472;2023-05-22T03:29:33;100096.50;;;16.61;100.00
4858;BME280;58975;51.978;8.472;2023-05-22T03:34:29;100104.06;;;16.66;100.00
4858;BME280;58975;51.978;8.472;2023-05-22T03:39:27;100097.00;;;16.73;100.00
4858;BME280;58975;51.978;8.472;2023-05-22T03:44:23;100098.69;;;16.82;100.00
4858;BME280;58975;51.978;8.472;2023-05-22T03:49:20;100097.34;;;16.78;100.00
4858;BME280;58975;51.978;8.472;2023-05-22T03:54:16;100091.97;;;16.70;100.00
4858;BME280;58975;51.978;8.472;2023-05-22T03:59:13;100096.31;;;16.63;100.00
4858;BME280;58975;51.978;8.472;2023-05-22T04:04:09;100092.13;;;16.60;100.00
4858;BME280;58975;51.978;8.472;2023-05-22T04:09:11;100098.19;;;16.62;100.00
4858;BME280;58975;51.978;8.472;2023-05-22T04:14:08;100103.38;;;16.64;100.00
4858;BME280;58975;51.978;8.472;2023-05-22T04:19:04;100097.34;;;16.62;100.00
4858;BME280;58975;51.978;8.472;2023-05-22T04:24:02;100104.38;;;16.63;100.00
4858;BME280;58975;51.978;8.472;2023-05-22T04:29:02;100103.56;;;16.62;100.00
4858;BME280;58975;51.978;8.472;2023-05-22T04:33:59;100101.53;;;16.64;100.00
4858;BME280;58975;51.978;8.472;2023-05-22T04:38:56;100103.72;;;16.69;100.00
4858;BME280;58975;51.978;8.472;2023-05-22T04:43:52;100121.84;;;16.75;100.00
4858;BME280;58975;51.978;8.472;2023-05-22T04:48:49;100119.84;;;16.77;100.00
4858;BME280;58975;51.978;8.472;2023-05-22T04:53:46;100114.97;;;16.72;100.00
4858;BME280;58975;51.978;8.472;2023-05-22T04:58:44;100113.78;;;16.67;100.00
4858;BME280;58975;51.978;8.472;2023-05-22T05:03:43;100111.44;;;16.64;100.00
4858;BME280;58975;51.978;8.472;2023-05-22T05:08:40;100115.28;;;16.53;100.00
4858;BME280;58975;51.978;8.472;2023-05-22T05:13:39;100096.84;;;16.58;100.00
4858;BME280;58975;51.978;8.472;2023-05-22T05:18:36;100101.66;;;16.54;100.00
4858;BME280;58975;51.978;8.472;2023-05-22T05:23:33;100101.03;;;16.61;100.00
4858;BME280;58975;51.978;8.472;2023-05-22T05:28:29;100112.78;;;16.68;100.00
4858;BME280;58975;51.978;8.472;2023-05-22T05:33:26;100106.75;;;16.74;100.00
4858;BME280;58975;51.978;8.472;2023-05-22T05:38:22;100104.38;;;16.79;100.00
4858;BME280;58975;51.978;8.472;2023-05-22T05:43:19;100108.09;;;16.78;100.00
4858;BME280;58975;51.978;8.472;2023-05-22T05:48:16;100107.88;;;16.87;100.00
4858;BME280;58975;51.978;8.472;2023-05-22T05:53:12;100107.72;;;16.89;100.00
4858;BME280;58975;51.978;8.472;2023-05-22T05:58:09;100107.88;;;16.95;100.00
4858;BME280;58975;51.978;8.472;2023-05-22T06:03:05;100112.91;;;17.07;100.00
4858;BME280;58975;51.978;8.472;2023-05-22T06:08:02;100107.50;;;17.15;100.00
4858;BME280;58975;51.978;8.472;2023-05-22T06:12:59;100103.28;;;17.20;100.00
4858;BME280;58975;51.978;8.472;2023-05-22T06:17:56;100101.94;;;17.16;100.00
4858;BME280;58975;51.978;8.472;2023-05-22T06:22:53;100107.97;;;17.26;100.00
4858;BME280;58975;51.978;8.472;2023-05-22T06:27:49;100105.94;;;17.36;100.00
4858;BME280;58975;51.978;8.472;2023-05-22T06:32:45;100109.03;;;17.56;100.00
4858;BME280;58975;51.978;8.472;2023-05-22T06:37:42;100102.13;;;17.62;100.00
4858;BME280;58975;51.978;8.472;2023-05-22T06:42:39;100106.94;;;17.74;100.00
4858;BME280;58975;51.978;8.472;2023-05-22T06:47:36;100101.47;;;17.90;100.00
4858;BME280;58975;51.978;8.472;2023-05-22T06:52:32;100101.50;;;18.13;100.00
4858;BME280;58975;51.978;8.472;2023-05-22T06:57:30;100109.94;;;18.33;100.00
4858;BME280;58975;51.978;8.472;2023-05-22T07:02:27;100107.28;;;18.48;100.00
4858;BME280;58975;51.978;8.472;2023-05-22T07:07:23;100107.94;;;18.58;100.00
4858;BME280;58975;51.978;8.472;2023-05-22T07:12:20;100103.78;;;18.70;100.00
4858;BME280;58975;51.978;8.472;2023-05-22T07:17:21;100111.91;;;18.99;100.00
4858;BME280;58975;51.978;8.472;2023-05-22T07:22:18;100109.13;;;19.22;100.00
4858;BME280;58975;51.978;8.472;2023-05-22T07:27:14;100114.63;;;19.28;100.00
4858;BME280;58975;51.978;8.472;2023-05-22T07:32:11;100119.50;;;19.48;100.00
4858;BME280;58975;51.978;8.472;2023-05-22T07:37:09;100115.22;;;19.89;100.00
4858;BME280;58975;51.978;8.472;2023-05-22T07:42:06;100114.28;;;20.33;100.00
4858;BME280;58975;51.978;8.472;2023-05-22T07:47:03;100116.22;;;20.66;100.00
4858;BME280;58975;51.978;8.472;2023-05-22T07:51:59;100106.84;;;21.52;100.00
4858;BME280;58975;51.978;8.472;2023-05-22T07:56:56;100117.50;;;22.01;100.00
4858;BME280;58975;51.978;8.472;2023-05-22T08:01:52;100106.72;;;22.28;100.00
4858;BME280;58975;51.978;8.472;2023-05-22T08:06:49;100119.75;;;22.85;100.00
4858;BME280;58975;51.978;8.472;2023-05-22T08:11:46;100114.41;;;24.07;100.00
4858;BME280;58975;51.978;8.472;2023-05-22T08:16:42;100116.88;;;24.77;100.00
4858;BME280;58975;51.978;8.472;2023-05-22T08:21:39;100127.22;;;24.37;100.00
4858;BME280;58975;51.978;8.472;2023-05-22T08:26:35;100130.34;;;24.41;100.00
4858;BME280;58975;51.978;8.472;2023-05-22T08:31:32;100127.22;;;24.93;100.00
4858;BME280;58975;51.978;8.472;2023-05-22T08:36:29;100120.94;;;25.36;100.00
4858;BME280;58975;51.978;8.472;2023-05-22T08:41:29;100117.97;;;25.37;100.00
4858;BME280;58975;51.978;8.472;2023-05-22T08:46:27;100109.59;;;25.39;100.00
4858;BME280;58975;51.978;8.472;2023-05-22T08:51:27;100114.50;;;25.30;100.00
4858;BME280;58975;51.978;8.472;2023-05-22T08:56:24;100102.91;;;25.35;100.00
4858;BME280;58975;51.978;8.472;2023-05-22T09:01:24;100104.09;;;25.64;100.00
4858;BME280;58975;51.978;8.472;2023-05-22T09:06:21;100102.59;;;25.98;99.59
4858;BME280;58975;51.978;8.472;2023-05-22T09:11:18;100102.53;;;26.16;88.02
4858;BME280;58975;51.978;8.472;2023-05-22T09:16:15;100098.84;;;26.40;87.22
4858;BME280;58975;51.978;8.472;2023-05-22T09:21:12;100113.47;;;26.34;87.07
4858;BME280;58975;51.978;8.472;2023-05-22T09:26:28;100111.34;;;26.18;88.45
4858;BME280;58975;51.978;8.472;2023-05-22T09:31:24;100100.91;;;26.56;82.74
4858;BME280;58975;51.978;8.472;2023-05-22T09:36:21;100106.28;;;25.73;87.13
4858;BME280;58975;51.978;8.472;2023-05-22T09:41:25;100110.28;;;25.10;100.00
4858;BME280;58975;51.978;8.472;2023-05-22T09:46:23;100112.69;;;25.24;100.00
4858;BME280;58975;51.978;8.472;2023-05-22T09:51:20;100103.47;;;25.62;100.00
4858;BME280;58975;51.978;8.472;2023-05-22T09:56:19;100109.81;;;25.37;100.00
4858;BME280;58975;51.978;8.472;2023-05-22T10:01:35;100106.72;;;24.91;100.00
4858;BME280;58975;51.978;8.472;2023-05-22T10:06:32;100108.09;;;25.61;100.00
4858;BME280;58975;51.978;8.472;2023-05-22T10:11:30;100106.13;;;26.46;100.00
4858;BME280;58975;51.978;8.472;2023-05-22T10:16:28;100112.59;;;25.49;100.00
4858;BME280;58975;51.978;8.472;2023-05-22T10:21:26;100104.97;;;25.39;100.00
4858;BME280;58975;51.978;8.472;2023-05-22T10:26:24;100097.69;;;25.88;100.00
4858;BME280;58975;51.978;8.472;2023-05-22T10:31:52;100088.38;;;25.23;100.00
4858;BME280;58975;51.978;8.472;2023-05-22T10:37:14;100095.53;;;24.18;100.00
4858;BME280;58975;51.978;8.472;2023-05-22T10:42:17;100096.41;;;24.06;100.00
4858;BME280;58975;51.978;8.472;2023-05-22T10:47:13;100090.28;;;24.17;100.00
4858;BME280;58975;51.978;8.472;2023-05-22T10:52:10;100077.91;;;24.52;100.00
4858;BME280;58975;51.978;8.472;2023-05-22T10:57:13;100081.84;;;24.56;100.00
4858;BME280;58975;51.978;8.472;2023-05-22T11:02:24;100083.16;;;25.76;100.00
4858;BME280;58975;51.978;8.472;2023-05-22T11:07:25;100083.63;;;25.36;100.00
4858;BME280;58975;51.978;8.472;2023-05-22T11:12:28;100074.13;;;25.03;100.00
4858;BME280;58975;51.978;8.472;2023-05-22T11:17:40;100080.53;;;24.65;100.00
4858;BME280;58975;51.978;8.472;2023-05-22T11:22:42;100076.69;;;24.17;100.00
4858;BME280;58975;51.978;8.472;2023-05-22T11:27:39;100082.53;;;24.14;100.00
4858;BME280;58975;51.978;8.472;2023-05-22T11:32:37;100070.06;;;24.62;100.00
4858;BME280;58975;51.978;8.472;2023-05-22T11:37:38;100060.41;;;25.52;100.00
4858;BME280;58975;51.978;8.472;2023-05-22T11:42:35;100058.22;;;25.91;100.00
4858;BME280;58975;51.978;8.472;2023-05-22T11:47:32;100053.06;;;24.91;100.00
4858;BME280;58975;51.978;8.472;2023-05-22T11:52:35;100056.44;;;25.12;100.00
4858;BME280;58975;51.978;8.472;2023-05-22T11:57:31;100049.63;;;25.39;100.00
4858;BME280;58975;51.978;8.472;2023-05-22T12:02:28;100039.28;;;24.86;100.00
4858;BME280;58975;51.978;8.472;2023-05-22T12:07:25;100032.50;;;25.14;100.00
4858;BME280;58975;51.978;8.472;2023-05-22T12:12:22;100025.06;;;25.57;100.00
4858;BME280;58975;51.978;8.472;2023-05-22T12:17:19;100027.88;;;25.99;100.00
4858;BME280;58975;51.978;8.472;2023-05-22T12:22:15;100019.31;;;25.65;100.00
4858;BME280;58975;51.978;8.472;2023-05-22T12:27:13;100026.59;;;25.71;100.00
4858;BME280;58975;51.978;8.472;2023-05-22T12:32:10;100025.00;;;25.64;100.00
4858;BME280;58975;51.978;8.472;2023-05-22T12:37:21;100033.41;;;25.62;100.00
4858;BME280;58975;51.978;8.472;2023-05-22T12:42:18;100036.72;;;25.10;100.00
4858;BME280;58975;51.978;8.472;2023-05-22T12:47:14;100033.41;;;24.89;100.00
4858;BME280;58975;51.978;8.472;2023-05-22T12:52:11;100029.84;;;25.07;100.00
4858;BME280;58975;51.978;8.472;2023-05-22T12:57:08;100034.09;;;25.03;100.00
4858;BME280;58975;51.978;8.472;2023-05-22T13:02:05;100034.09;;;25.39;100.00
4858;BME280;58975;51.978;8.472;2023-05-22T13:07:02;100033.94;;;24.98;100.00
4858;BME280;58975;51.978;8.472;2023-05-22T13:11:58;100026.69;;;25.76;100.00
4858;BME280;58975;51.978;8.472;2023-05-22T13:16:55;100027.81;;;25.57;100.00
4858;BME280;58975;51.978;8.472;2023-05-22T13:21:51;100020.53;;;25.51;100.00
4858;BME280;58975;51.978;8.472;2023-05-22T13:26:48;100020.84;;;25.25;100.00
4858;BME280;58975;51.978;8.472;2023-05-22T13:31:45;100022.66;;;25.31;100.00
4858;BME280;58975;51.978;8.472;2023-05-22T13:36:41;100016.00;;;25.09;100.00
4858;BME280;58975;51.978;8.472;2023-05-22T13:41:38;100020.06;;;24.81;100.00
4858;BME280;58975;51.978;8.472;2023-05-22T13:46:34;100013.41;;;25.14;100.00
4858;BME280;58975;51.978;8.472;2023-05-22T13:51:33;100012.81;;;25.30;100.00
4858;BME280;58975;51.978;8.472;2023-05-22T13:56:31;99994.63;;;25.42;100.00
4858;BME280;58975;51.978;8.472;2023-05-22T14:01:27;99987.22;;;24.94;100.00
4858;BME280;58975;51.978;8.472;2023-05-22T14:06:24;99984.97;;;25.10;100.00
4858;BME280;58975;51.978;8.472;2023-05-22T14:11:21;99977.13;;;25.68;100.00
4858;BME280;58975;51.978;8.472;2023-05-22T14:16:20;99982.63;;;25.79;100.00
4858;BME280;58975;51.978;8.472;2023-05-22T14:21:18;99981.53;;;25.80;100.00
4858;BME280;58975;51.978;8.472;2023-05-22T14:26:14;99987.00;;;25.14;100.00
4858;BME280;58975;51.978;8.472;2023-05-22T14:31:11;99987.25;;;25.13;100.00
4858;BME280;58975;51.978;8.472;2023-05-22T14:36:07;99988.63;;;24.85;100.00
4858;BME280;58975;51.978;8.472;2023-05-22T14:41:04;99988.66;;;25.33;100.00
4858;BME280;58975;51.978;8.472;2023-05-22T14:46:00;99992.84;;;25.18;100.00
4858;BME280;58975;51.978;8.472;2023-05-22T14:50:57;99996.63;;;25.17;100.00
4858;BME280;58975;51.978;8.472;2023-05-22T14:55:53;100004.97;;;25.04;100.00
4858;BME280;58975;51.978;8.472;2023-05-22T15:00:49;99995.72;;;25.59;100.00
4858;BME280;58975;51.978;8.472;2023-05-22T15:05:46;100000.84;;;26.09;100.00
4858;BME280;58975;51.978;8.472;2023-05-22T15:10:43;99983.34;;;26.51;78.92
4858;BME280;58975;51.978;8.472;2023-05-22T15:15:40;99988.59;;;26.88;67.09
4858;BME280;58975;51.978;8.472;2023-05-22T15:20:37;99981.56;;;26.80;74.84
4858;BME280;58975;51.978;8.472;2023-05-22T15:25:34;99974.50;;;26.03;75.25
4858;BME280;58975;51.978;8.472;2023-05-22T15:30:32;99966.59;;;25.71;77.51
4858;BME280;58975;51.978;8.472;2023-05-22T15:35:33;99960.00;;;25.61;80.51
4858;BME280;58975;51.978;8.472;2023-05-22T15:40:30;99951.94;;;25.54;75.58
4858;BME280;58975;51.978;8.472;2023-05-22T15:45:26;99977.03;;;25.74;76.75
4858;BME280;58975;51.978;8.472;2023-05-22T15:50:23;100010.19;;;25.23;78.54
4858;BME280;58975;51.978;8.472;2023-05-22T15:55:20;100025.00;;;23.79;80.66
4858;BME280;58975;51.978;8.472;2023-05-22T16:00:16;100051.19;;;22.24;100.00
4858;BME280;58975;51.978;8.472;2023-05-22T16:05:13;100059.22;;;21.23;100.00
4858;BME280;58975;51.978;8.472;2023-05-22T16:10:10;100123.72;;;20.22;100.00
4858;BME280;58975;51.978;8.472;2023-05-22T16:15:07;100144.94;;;19.01;100.00
4858;BME280;58975;51.978;8.472;2023-05-22T16:20:05;100129.59;;;17.88;100.00
4858;BME280;58975;51.978;8.472;2023-05-22T16:25:01;100133.34;;;17.32;100.00
4858;BME280;58975;51.978;8.472;2023-05-22T16:29:58;100098.72;;;17.29;100.00
4858;BME280;58975;51.978;8.472;2023-05-22T16:34:57;100076.16;;;17.30;100.00
4858;BME280;58975;51.978;8.472;2023-05-22T16:39:54;100072.78;;;17.36;100.00
4858;BME280;58975;51.978;8.472;2023-05-22T16:44:51;100064.78;;;17.20;100.00
4858;BME280;58975;51.978;8.472;2023-05-22T16:49:48;100063.78;;;17.13;100.00
4858;BME280;58975;51.978;8.472;2023-05-22T16:54:45;100077.44;;;16.95;100.00
4858;BME280;58975;51.978;8.472;2023-05-22T16:59:41;100116.78;;;16.39;100.00
4858;BME280;58975;51.978;8.472;2023-05-22T17:04:38;100129.56;;;16.45;100.00
4858;BME280;58975;51.978;8.472;2023-05-22T17:09:35;100139.63;;;16.35;100.00
4858;BME280;58975;51.978;8.472;2023-05-22T17:14:32;100133.59;;;16.25;100.00
4858;BME280;58975;51.978;8.472;2023-05-22T17:19:29;100130.22;;;16.15;100.00
4858;BME280;58975;51.978;8.472;2023-05-22T17:24:26;100127.53;;;16.15;100.00
4858;BME280;58975;51.978;8.472;2023-05-22T17:29:23;100127.19;;;16.18;100.00
4858;BME280;58975;51.978;8.472;2023-05-22T17:34:21;100113.09;;;16.16;100.00
4858;BME280;58975;51.978;8.472;2023-05-22T17:39:19;100122.84;;;16.25;100.00
4858;BME280;58975;51.978;8.472;2023-05-22T17:44:15;100124.19;;;16.37;100.00
4858;BME280;58975;51.978;8.472;2023-05-22T17:49:12;100117.81;;;16.38;100.00
4858;BME280;58975;51.978;8.472;2023-05-22T17:54:08;100146.53;;;16.30;100.00
4858;BME280;58975;51.978;8.472;2023-05-22T17:59:05;100176.25;;;16.36;100.00
4858;BME280;58975;51.978;8.472;2023-05-22T18:04:02;100190.00;;;16.17;100.00
4858;BME280;58975;51.978;8.472;2023-05-22T18:09:00;100216.16;;;16.07;100.00
4858;BME280;58975;51.978;8.472;2023-05-22T18:13:59;100244.72;;;16.16;100.00
4858;BME280;58975;51.978;8.472;2023-05-22T18:18:55;100278.97;;;16.14;100.00
4858;BME280;58975;51.978;8.472;2023-05-22T18:23:53;100288.81;;;15.97;100.00
4858;BME280;58975;51.978;8.472;2023-05-22T18:28:50;100310.00;;;15.75;100.00
4858;BME280;58975;51.978;8.472;2023-05-22T18:33:46;100305.38;;;15.59;100.00
4858;BME280;58975;51.978;8.472;2023-05-22T18:38:43;100309.84;;;15.50;100.00
4858;BME280;58975;51.978;8.472;2023-05-22T18:43:39;100317.19;;;15.48;100.00
4858;BME280;58975;51.978;8.472;2023-05-22T18:48:36;100338.66;;;15.48;100.00
4858;BME280;58975;51.978;8.472;2023-05-22T18:53:33;100356.47;;;15.49;100.00
4858;BME280;58975;51.978;8.472;2023-05-22T18:58:29;100364.91;;;15.54;100.00
4858;BME280;58975;51.978;8.472;2023-05-22T19:03:26;100370.94;;;15.56;100.00
4858;BME280;58975;51.978;8.472;2023-05-22T19:08:22;100387.59;;;15.60;100.00
4858;BME280;58975;51.978;8.472;2023-05-22T19:13:21;100388.78;;;15.66;100.00
4858;BME280;58975;51.978;8.472;2023-05-22T19:18:18;100393.31;;;15.65;100.00
4858;BME280;58975;51.978;8.472;2023-05-22T19:23:14;100400.75;;;15.71;100.00
4858;BME280;58975;51.978;8.472;2023-05-22T19:28:10;100408.81;;;15.71;100.00
4858;BME280;58975;51.978;8.472;2023-05-22T19:33:07;100409.34;;;15.75;100.00
4858;BME280;58975;51.978;8.472;2023-05-22T19:38:04;100409.47;;;15.91;100.00
4858;BME280;58975;51.978;8.472;2023-05-22T19:43:01;100403.97;;;16.00;100.00
4858;BME280;58975;51.978;8.472;2023-05-22T19:47:57;100418.00;;;15.86;100.00
4858;BME280;58975;51.978;8.472;2023-05-22T19:52:54;100419.69;;;15.70;100.00
4858;BME280;58975;51.978;8.472;2023-05-22T19:57:50;100422.31;;;15.61;100.00
4858;BME280;58975;51.978;8.472;2023-05-22T20:02:47;100423.38;;;15.69;100.00
4858;BME280;58975;51.978;8.472;2023-05-22T20:07:43;100434.75;;;15.63;100.00
4858;BME280;58975;51.978;8.472;2023-05-22T20:12:40;100450.16;;;15.60;100.00
4858;BME280;58975;51.978;8.472;2023-05-22T20:17:36;100464.59;;;15.59;100.00
4858;BME280;58975;51.978;8.472;2023-05-22T20:22:33;100473.25;;;15.53;100.00
4858;BME280;58975;51.978;8.472;2023-05-22T20:27:30;100488.81;;;15.50;100.00
4858;BME280;58975;51.978;8.472;2023-05-22T20:32:27;100493.19;;;15.51;100.00
4858;BME280;58975;51.978;8.472;2023-05-22T20:37:24;100492.75;;;15.55;100.00
4858;BME280;58975;51.978;8.472;2023-05-22T20:42:21;100515.88;;;15.56;100.00
4858;BME280;58975;51.978;8.472;2023-05-22T20:47:18;100509.16;;;15.52;100.00
4858;BME280;58975;51.978;8.472;2023-05-22T20:52:14;100516.38;;;15.52;100.00
4858;BME280;58975;51.978;8.472;2023-05-22T20:57:11;100522.06;;;15.39;100.00
4858;BME280;58975;51.978;8.472;2023-05-22T21:02:07;100531.72;;;15.32;100.00
4858;BME280;58975;51.978;8.472;2023-05-22T21:07:04;100538.38;;;15.28;100.00
4858;BME280;58975;51.978;8.472;2023-05-22T21:12:01;100531.94;;;15.39;100.00
4858;BME280;58975;51.978;8.472;2023-05-22T21:16:59;100540.69;;;15.41;100.00
4858;BME280;58975;51.978;8.472;2023-05-22T21:21:55;100548.28;;;15.18;100.00
4858;BME280;58975;51.978;8.472;2023-05-22T21:26:52;100533.56;;;15.04;100.00
4858;BME280;58975;51.978;8.472;2023-05-22T21:31:48;100523.78;;;15.13;100.00
4858;BME280;58975;51.978;8.472;2023-05-22T21:36:45;100529.38;;;15.20;100.00
4858;BME280;58975;51.978;8.472;2023-05-22T21:41:41;100535.94;;;15.35;100.00
4858;BME280;58975;51.978;8.472;2023-05-22T21:46:38;100548.50;;;15.34;100.00
4858;BME280;58975;51.978;8.472;2023-05-22T21:51:34;100558.34;;;15.16;100.00
4858;BME280;58975;51.978;8.472;2023-05-22T21:56:31;100558.97;;;15.00;100.00
4858;BME280;58975;51.978;8.472;2023-05-22T22:01:27;100570.28;;;14.94;100.00
4858;BME280;58975;51.978;8.472;2023-05-22T22:06:24;100576.09;;;14.90;100.00
4858;BME280;58975;51.978;8.472;2023-05-22T22:11:21;100574.41;;;14.89;100.00
4858;BME280;58975;51.978;8.472;2023-05-22T22:16:17;100589.09;;;14.85;100.00
4858;BME280;58975;51.978;8.472;2023-05-22T22:21:26;100585.47;;;14.76;100.00
4858;BME280;58975;51.978;8.472;2023-05-22T22:26:23;100572.53;;;14.62;100.00
4858;BME280;58975;51.978;8.472;2023-05-22T22:31:19;100564.38;;;14.54;100.00
4858;BME280;58975;51.978;8.472;2023-05-22T22:36:16;100555.06;;;14.48;100.00
4858;BME280;58975;51.978;8.472;2023-05-22T22:41:13;100549.56;;;14.40;100.00
4858;BME280;58975;51.978;8.472;2023-05-22T22:46:09;100537.72;;;14.33;100.00
4858;BME280;58975;51.978;8.472;2023-05-22T22:51:07;100533.63;;;14.19;100.00
4858;BME280;58975;51.978;8.472;2023-05-22T22:56:03;100520.84;;;14.04;100.00
4858;BME280;58975;51.978;8.472;2023-05-22T23:00:59;100499.00;;;13.99;100.00
4858;BME280;58975;51.978;8.472;2023-05-22T23:05:56;100473.78;;;13.92;100.00
4858;BME280;58975;51.978;8.472;2023-05-22T23:10:53;100448.19;;;13.80;100.00
4858;BME280;58975;51.978;8.472;2023-05-22T23:15:49;100439.00;;;13.72;100.00
4858;BME280;58975;51.978;8.472;2023-05-22T23:20:46;100431.56;;;13.66;100.00
4858;BME280;58975;51.978;8.472;2023-05-22T23:25:42;100422.41;;;13.59;100.00
4858;BME280;58975;51.978;8.472;2023-05-22T23:30:39;100417.91;;;13.50;100.00
4858;BME280;58975;51.978;8.472;2023-05-22T23:35:35;100414.25;;;13.42;100.00
4858;BME280;58975;51.978;8.472;2023-05-22T23:40:32;100412.28;;;13.34;100.00
4858;BME280;58975;51.978;8.472;2023-05-22T23:45:28;100405.81;;;13.27;100.00
4858;BME280;58975;51.978;8.472;2023-05-22T23:50:24;100402.28;;;13.17;100.00
4858;BME280;58975;51.978;8.472;2023-05-22T23:55:21;100395.66;;;13.11;100.00
